Time;durP1;ratioP1;P1;durP2;ratioP2;P2;SDS_P1;SDS_P2;PMS_P1;PMS_P2;Temp;Humidity;BMP_temperature;BMP_pressure;BME280_temperature;BME280_humidity;BME280_pressure;Samples;Min_cycle;Max_cycle;Signal;HPM_P1;HPM_P2
2021/11/21 00:02:22;;;;;;;10.78;5.50;;;;;;;7.56;81.03;100993.20;1784642;78;22022;-67
2021/11/21 00:04:50;;;;;;;14.40;6.12;;;;;;;7.61;81.09;100999.32;1788057;79;23129;-66
2021/11/21 00:07:17;;;;;;;11.97;6.67;;;;;;;7.67;81.12;100987.66;1786040;78;21103;-65
2021/11/21 00:09:44;;;;;;;12.07;6.40;;;;;;;7.68;80.93;100998.31;1782107;78;21098;-65
2021/11/21 00:12:12;;;;;;;16.32;6.90;;;;;;;7.69;81.01;101008.08;1780158;78;21068;-65
2021/11/21 00:14:39;;;;;;;13.95;6.83;;;;;;;7.68;80.90;101006.33;1773294;79;21117;-65
2021/11/21 00:17:07;;;;;;;14.55;6.85;;;;;;;7.66;80.76;101016.59;1772417;79;21580;-65
2021/11/21 00:19:36;;;;;;;14.53;7.60;;;;;;;7.60;80.67;101026.48;1777125;79;21062;-58
2021/11/21 00:22:03;;;;;;;17.12;7.40;;;;;;;7.53;80.59;101019.94;1778039;79;21066;-59
2021/11/21 00:24:30;;;;;;;14.80;7.20;;;;;;;7.47;80.83;101017.39;1773892;79;21214;-59
2021/11/21 00:26:59;;;;;;;19.10;7.42;;;;;;;7.44;80.96;101023.21;1775774;79;20979;-57
2021/11/21 00:29:26;;;;;;;18.17;7.50;;;;;;;7.41;81.00;101020.60;1780998;79;21112;-58
2021/11/21 00:31:53;;;;;;;17.30;8.25;;;;;;;7.35;81.01;101023.35;1774374;79;21072;-57
2021/11/21 00:34:20;;;;;;;16.48;7.75;;;;;;;7.26;81.23;101021.72;1773953;80;20999;-57
2021/11/21 00:36:47;;;;;;;18.85;8.45;;;;;;;7.21;81.54;101020.06;1772419;79;21032;-65
2021/11/21 00:39:14;;;;;;;15.03;8.45;;;;;;;7.18;81.68;101026.31;1779058;79;21430;-66
2021/11/21 00:41:41;;;;;;;14.20;7.78;;;;;;;7.15;81.89;101017.89;1779430;79;21127;-66
2021/11/21 00:44:08;;;;;;;13.75;7.58;;;;;;;7.14;82.00;101016.14;1771611;80;20924;-58
2021/11/21 00:46:35;;;;;;;13.75;7.62;;;;;;;7.12;82.23;101007.28;1774165;79;21094;-58
2021/11/21 00:49:05;;;;;;;15.08;7.90;;;;;;;7.15;82.48;101011.23;1775445;79;21096;-66
2021/11/21 00:51:32;;;;;;;17.77;9.10;;;;;;;7.17;82.44;101014.75;1778179;79;21038;-59
2021/11/21 00:54:10;;;;;;;13.95;8.63;;;;;;;7.15;82.42;101013.89;1773756;79;21198;-57
2021/11/21 00:56:33;;;;;;;14.18;8.38;;;;;;;7.10;82.54;101015.77;1779208;79;21110;-59
2021/11/21 00:59:00;;;;;;;16.25;8.63;;;;;;;7.04;82.68;101015.88;1779460;79;21416;-58
2021/11/21 01:01:27;;;;;;;13.38;7.78;;;;;;;7.00;82.91;101020.36;1782028;79;21101;-57
2021/11/21 01:03:56;;;;;;;14.75;8.03;;;;;;;6.97;83.03;101006.22;1773123;79;21030;-58
2021/11/21 01:06:23;;;;;;;14.75;8.93;;;;;;;6.94;83.11;101010.24;1779536;79;21094;-58
2021/11/21 01:08:52;;;;;;;13.78;8.18;;;;;;;6.86;83.17;101009.92;1778026;79;21027;-57
2021/11/21 01:11:19;;;;;;;15.90;8.98;;;;;;;6.76;83.27;101006.98;1777982;79;21003;-57
2021/11/21 01:13:45;;;;;;;16.57;8.25;;;;;;;6.70;83.66;101015.05;1776699;80;21086;-56
2021/11/21 01:16:14;;;;;;;15.00;8.50;;;;;;;6.67;83.77;101015.98;1784112;78;20958;-58
2021/11/21 01:18:41;;;;;;;19.30;8.75;;;;;;;6.61;83.99;101009.86;1780985;78;21077;-57
2021/11/21 01:21:08;;;;;;;18.98;9.10;;;;;;;6.59;84.11;101010.77;1784360;79;20927;-66
2021/11/21 01:23:36;;;;;;;15.75;8.48;;;;;;;6.63;84.35;101016.05;1787268;79;21797;-59
2021/11/21 01:26:03;;;;;;;14.35;8.40;;;;;;;6.61;84.29;101021.84;1785910;80;21093;-58
2021/11/21 01:28:32;;;;;;;18.90;9.58;;;;;;;6.58;84.24;101020.09;1785765;79;21035;-57
2021/11/21 01:30:59;;;;;;;16.65;8.50;;;;;;;6.50;84.25;101018.87;1788455;79;21137;-56
2021/11/21 01:33:26;;;;;;;13.03;7.28;;;;;;;6.49;84.36;101010.45;1783505;79;21038;-56
2021/11/21 01:35:53;;;;;;;14.68;8.00;;;;;;;6.44;84.43;101005.64;1775801;80;21081;-57
2021/11/21 01:38:20;;;;;;;13.48;7.85;;;;;;;6.39;84.68;101003.03;1782572;79;21501;-57
2021/11/21 01:40:48;;;;;;;13.55;7.87;;;;;;;6.39;84.77;101002.17;1778718;79;21483;-58
2021/11/21 01:43:15;;;;;;;16.23;8.40;;;;;;;6.34;84.84;101001.36;1786407;79;21920;-57
2021/11/21 01:45:42;;;;;;;12.78;7.90;;;;;;;6.30;85.00;100996.08;1780641;80;21029;-59
2021/11/21 01:48:09;;;;;;;16.90;7.65;;;;;;;6.28;85.17;100992.99;1785501;79;20981;-57
2021/11/21 01:50:39;;;;;;;17.32;7.80;;;;;;;6.25;85.22;100996.56;1782649;79;21076;-58
2021/11/21 01:53:06;;;;;;;16.37;8.38;;;;;;;6.22;85.29;100997.94;1786333;79;22126;-58
2021/11/21 01:55:34;;;;;;;17.25;8.13;;;;;;;6.19;85.42;100987.33;1785703;79;21057;-65
2021/11/21 01:58:02;;;;;;;15.63;8.78;;;;;;;6.17;85.51;100985.14;1786822;79;20947;-66
2021/11/21 02:00:34;;;;;;;15.23;8.90;;;;;;;6.12;85.67;100985.19;1788452;79;21034;-65
2021/11/21 02:03:01;;;;;;;17.27;8.70;;;;;;;6.08;85.84;100999.45;1781914;79;20971;-66
2021/11/21 02:05:28;;;;;;;15.08;7.42;;;;;;;6.05;85.94;100995.50;1777923;80;21696;-65
2021/11/21 02:07:55;;;;;;;16.17;7.92;;;;;;;6.02;85.84;101003.06;1782710;79;20931;-65
2021/11/21 02:10:22;;;;;;;18.50;8.85;;;;;;;6.01;86.11;100997.30;1789797;79;21372;-64
2021/11/21 02:12:50;;;;;;;15.10;7.92;;;;;;;5.99;86.10;100991.56;1787823;79;21471;-66
2021/11/21 02:15:21;;;;;;;16.55;8.25;;;;;;;5.97;86.37;100992.89;1786366;79;20958;-66
2021/11/21 02:17:48;;;;;;;16.48;8.70;;;;;;;5.99;86.41;101006.20;1786317;79;21054;-65
2021/11/21 02:20:20;;;;;;;15.13;8.10;;;;;;;5.97;86.44;101010.66;1777516;78;21796;-65
2021/11/21 02:22:47;;;;;;;17.52;8.05;;;;;;;5.95;86.37;101013.33;1782795;78;21164;-65
2021/11/21 02:25:15;;;;;;;16.02;7.92;;;;;;;5.90;86.47;101002.30;1782393;79;21070;-65
2021/11/21 02:27:41;;;;;;;13.35;8.10;;;;;;;5.92;86.83;101016.02;1786569;79;21117;-57
2021/11/21 02:30:09;;;;;;;18.23;7.97;;;;;;;5.95;86.92;101013.33;1785069;79;21068;-59
2021/11/21 02:32:37;;;;;;;14.68;7.37;;;;;;;5.94;86.82;101007.57;1783936;79;21411;-58
2021/11/21 02:35:05;;;;;;;14.90;9.63;;;;;;;5.90;86.90;101008.95;1782660;79;21101;-58
2021/11/21 02:37:32;;;;;;;18.92;8.43;;;;;;;5.88;87.09;101008.98;1780393;80;21463;-63
2021/11/21 02:39:59;;;;;;;17.62;8.15;;;;;;;5.85;87.03;101006.33;1785376;80;21013;-65
2021/11/21 02:42:30;;;;;;;19.35;8.35;;;;;;;5.84;87.15;101013.44;1782822;79;21065;-66
2021/11/21 02:44:58;;;;;;;13.43;7.45;;;;;;;5.83;87.28;101005.47;1786226;79;21432;-65
2021/11/21 02:47:31;;;;;;;16.75;7.83;;;;;;;5.79;87.59;101001.98;1782350;79;21034;-65
2021/11/21 02:49:54;;;;;;;13.28;7.80;;;;;;;5.80;87.75;101008.16;1780168;80;21091;-66
2021/11/21 02:52:21;;;;;;;14.70;8.53;;;;;;;5.77;87.84;101005.55;1786528;79;21069;-65
2021/11/21 02:54:52;;;;;;;14.55;8.70;;;;;;;5.76;88.03;101009.10;1784099;80;21121;-65
2021/11/21 02:57:19;;;;;;;15.75;8.18;;;;;;;5.74;88.17;101008.67;1786376;79;21127;-65
2021/11/21 02:59:46;;;;;;;12.47;7.45;;;;;;;5.74;88.17;101000.69;1784986;79;21054;-65
2021/11/21 03:02:13;;;;;;;16.37;7.87;;;;;;;5.74;88.32;101002.02;1783014;79;21063;-65
2021/11/21 03:04:40;;;;;;;12.65;7.70;;;;;;;5.78;88.59;100991.34;1783128;80;21085;-65
2021/11/21 03:07:10;;;;;;;14.20;8.00;;;;;;;5.83;88.68;100994.82;1774432;79;21989;-65
2021/11/21 03:09:37;;;;;;;15.83;8.05;;;;;;;5.86;88.66;100990.36;1776905;80;22359;-64
2021/11/21 03:12:05;;;;;;;18.48;9.08;;;;;;;5.88;88.65;100979.70;1785763;79;21034;-65
2021/11/21 03:14:33;;;;;;;14.40;7.70;;;;;;;5.87;88.55;100980.61;1778180;80;21072;-65
2021/11/21 03:17:00;;;;;;;13.70;7.87;;;;;;;5.88;88.70;100969.06;1780357;80;20986;-65
2021/11/21 03:19:28;;;;;;;14.07;8.13;;;;;;;5.91;88.75;100973.02;1783359;79;21000;-58
2021/11/21 03:21:55;;;;;;;16.42;7.95;;;;;;;5.93;88.86;100976.97;1781808;79;21127;-59
2021/11/21 03:24:22;;;;;;;17.37;7.97;;;;;;;5.95;88.86;100989.37;1780504;80;20923;-58
2021/11/21 03:26:49;;;;;;;12.90;8.13;;;;;;;5.97;88.84;100983.58;1783024;78;20923;-57
2021/11/21 03:29:15;;;;;;;17.42;9.65;;;;;;;5.98;88.73;100984.47;1779235;78;21064;-57
2021/11/21 03:31:42;;;;;;;13.90;8.70;;;;;;;5.94;88.69;100977.40;1777515;79;21201;-58
2021/11/21 03:34:11;;;;;;;16.75;9.03;;;;;;;5.91;88.73;100979.66;1778397;80;20904;-57
2021/11/21 03:36:39;;;;;;;16.85;7.83;;;;;;;5.90;88.79;100981.00;1777124;79;21567;-56
2021/11/21 03:39:06;;;;;;;15.72;8.85;;;;;;;5.90;88.91;100979.23;1777097;80;21111;-58
2021/11/21 03:41:35;;;;;;;16.12;8.53;;;;;;;5.88;88.85;100984.56;1779636;79;21050;-58
2021/11/21 03:44:04;;;;;;;15.17;8.17;;;;;;;5.86;88.96;100981.51;1784170;79;21496;-57
2021/11/21 03:46:34;;;;;;;16.57;8.78;;;;;;;5.82;89.00;100981.98;1782959;80;20999;-57
2021/11/21 03:49:02;;;;;;;14.33;8.88;;;;;;;5.73;89.01;100986.95;1783817;79;20947;-66
2021/11/21 03:51:29;;;;;;;15.78;8.18;;;;;;;5.69;89.15;100985.23;1782769;79;21119;-65
2021/11/21 03:53:55;;;;;;;15.60;8.28;;;;;;;5.67;89.43;100981.71;1784147;79;21055;-65
2021/11/21 03:56:22;;;;;;;15.40;8.48;;;;;;;5.68;89.55;100976.82;1779222;78;21023;-65
2021/11/21 03:58:50;;;;;;;15.40;8.68;;;;;;;5.68;89.78;100972.83;1779107;79;21507;-65
2021/11/21 04:01:17;;;;;;;13.22;8.63;;;;;;;5.69;89.96;100967.05;1777583;79;21040;-64
2021/11/21 04:03:46;;;;;;;14.35;7.95;;;;;;;5.70;90.06;100968.38;1781118;80;21112;-66
2021/11/21 04:06:13;;;;;;;17.23;8.90;;;;;;;5.73;90.19;100962.11;1774253;80;21105;-64
2021/11/21 04:08:42;;;;;;;12.70;7.92;;;;;;;5.74;90.08;100956.79;1782026;79;21485;-65
2021/11/21 04:11:09;;;;;;;16.62;8.25;;;;;;;5.73;90.07;100957.69;1786332;78;21130;-65
2021/11/21 04:13:37;;;;;;;14.40;8.23;;;;;;;5.73;90.05;100948.38;1784293;80;21073;-65
2021/11/21 04:16:05;;;;;;;15.20;8.18;;;;;;;5.71;90.11;100959.49;1737253;80;21047;-65
2021/11/21 04:18:33;;;;;;;15.10;8.78;;;;;;;5.71;90.16;100961.25;1731021;80;21135;-66
2021/11/21 04:21:01;;;;;;;15.08;9.05;;;;;;;5.70;90.28;100971.03;1727356;80;21166;-66
2021/11/21 04:23:30;;;;;;;17.02;8.75;;;;;;;5.72;90.32;100969.23;1730165;82;21203;-56
2021/11/21 04:25:58;;;;;;;14.87;8.43;;;;;;;5.71;90.21;100967.47;1732250;82;21004;-60
2021/11/21 04:28:24;;;;;;;15.10;8.85;;;;;;;5.69;90.26;100969.27;1724324;81;21093;-65
2021/11/21 04:30:53;;;;;;;14.30;8.58;;;;;;;5.68;90.27;100967.51;1730519;80;21001;-66
2021/11/21 04:33:22;;;;;;;18.67;8.38;;;;;;;5.67;90.40;100961.77;1728450;80;21373;-65
2021/11/21 04:35:49;;;;;;;17.85;9.30;;;;;;;5.67;90.33;100964.85;1735275;80;21886;-67
2021/11/21 04:38:19;;;;;;;18.50;8.93;;;;;;;5.65;90.47;100972.87;1725452;82;21239;-64
2021/11/21 04:40:47;;;;;;;16.60;8.40;;;;;;;5.69;90.42;100968.38;1731321;80;21526;-65
2021/11/21 04:43:15;;;;;;;13.38;8.43;;;;;;;5.67;90.40;100964.42;1722892;82;21083;-66
2021/11/21 04:45:42;;;;;;;16.42;7.90;;;;;;;5.68;90.58;100962.63;1732884;82;21099;-65
2021/11/21 04:48:09;;;;;;;16.12;8.53;;;;;;;5.70;90.58;100960.39;1734146;82;21155;-66
2021/11/21 04:50:36;;;;;;;17.48;9.00;;;;;;;5.70;90.65;100961.72;1725286;82;21182;-64
2021/11/21 04:53:04;;;;;;;18.37;8.40;;;;;;;5.69;90.75;100962.63;1730002;82;21563;-64
2021/11/21 04:55:33;;;;;;;15.70;8.45;;;;;;;5.67;90.53;100961.77;1733391;82;37946;-64
2021/11/21 04:58:00;;;;;;;17.30;8.43;;;;;;;5.66;90.52;100957.77;1731037;81;21601;-64
2021/11/21 05:00:28;;;;;;;15.60;8.15;;;;;;;5.65;90.66;100944.94;1724005;80;21506;-65
2021/11/21 05:02:55;;;;;;;13.98;8.40;;;;;;;5.64;90.62;100948.50;1729521;80;21154;-64
2021/11/21 05:05:23;;;;;;;15.28;8.15;;;;;;;5.65;90.69;100945.37;1728903;82;21108;-65
2021/11/21 05:07:50;;;;;;;12.60;8.18;;;;;;;5.65;90.73;100951.59;1729005;82;21542;-64
2021/11/21 05:10:18;;;;;;;15.60;7.95;;;;;;;5.64;90.62;100955.58;1697951;84;21126;-64
2021/11/21 05:12:46;;;;;;;17.17;8.15;;;;;;;5.64;90.68;100956.48;1729083;82;21560;-66
2021/11/21 05:15:15;;;;;;;13.83;7.58;;;;;;;5.66;90.75;100958.67;1744312;80;20927;-65
2021/11/21 05:17:45;;;;;;;12.58;7.97;;;;;;;5.69;90.80;100953.31;1768442;79;21039;-57
2021/11/21 05:20:11;;;;;;;14.35;7.83;;;;;;;5.74;90.83;100954.56;1766207;80;21061;-65
2021/11/21 05:22:38;;;;;;;14.40;8.05;;;;;;;5.79;90.75;100954.09;1771119;79;21129;-64
2021/11/21 05:25:06;;;;;;;12.55;7.20;;;;;;;5.83;90.55;100953.58;1770003;80;21118;-65
2021/11/21 05:27:33;;;;;;;20.30;7.95;;;;;;;5.85;90.42;100957.09;1766705;79;21017;-66
2021/11/21 05:30:02;;;;;;;9.80;6.50;;;;;;;5.89;90.40;100950.86;1760950;79;21482;-65
2021/11/21 05:32:30;;;;;;;16.15;8.25;;;;;;;5.96;90.36;100944.98;1772505;79;21022;-64
2021/11/21 05:34:57;;;;;;;17.73;8.15;;;;;;;6.04;90.13;100944.49;1771381;80;21558;-64
2021/11/21 05:37:24;;;;;;;16.85;8.90;;;;;;;6.08;89.84;100946.64;1774695;79;21621;-65
2021/11/21 05:39:51;;;;;;;11.00;7.62;;;;;;;6.13;89.74;100950.15;1779656;80;21421;-65
2021/11/21 05:42:18;;;;;;;13.38;7.45;;;;;;;6.18;89.41;100954.95;1778769;79;21417;-66
2021/11/21 05:44:45;;;;;;;16.10;8.58;;;;;;;6.25;89.28;100960.62;1772011;80;21036;-65
2021/11/21 05:47:12;;;;;;;12.47;7.80;;;;;;;6.34;88.95;100956.95;1773638;79;21000;-65
2021/11/21 05:49:39;;;;;;;13.22;7.62;;;;;;;6.39;88.62;100955.56;1768938;80;21112;-64
2021/11/21 05:52:07;;;;;;;13.70;7.47;;;;;;;6.42;88.30;100955.52;1775359;79;21060;-64
2021/11/21 05:54:34;;;;;;;13.45;7.37;;;;;;;6.44;88.04;100958.59;1765398;80;21072;-64
2021/11/21 05:57:01;;;;;;;15.23;7.72;;;;;;;6.51;87.96;100966.02;1773093;80;20988;-57
2021/11/21 05:59:28;;;;;;;14.25;7.90;;;;;;;6.54;87.57;100973.09;1765697;79;21101;-57
2021/11/21 06:01:55;;;;;;;16.70;7.75;;;;;;;6.57;87.64;100969.95;1771639;80;21619;-57
2021/11/21 06:04:22;;;;;;;15.90;7.67;;;;;;;6.68;87.59;100970.22;1753733;80;21061;-57
2021/11/21 06:06:49;;;;;;;15.88;8.00;;;;;;;6.76;87.40;100969.67;1777775;79;21456;-57
2021/11/21 06:09:15;;;;;;;13.03;7.83;;;;;;;6.86;87.07;100967.28;1771509;79;21088;-57
2021/11/21 06:11:43;;;;;;;15.85;8.28;;;;;;;6.95;86.83;100964.02;1764998;79;21822;-57
2021/11/21 06:14:10;;;;;;;12.45;8.00;;;;;;;7.01;86.44;100958.61;1769336;79;22325;-57
2021/11/21 06:16:37;;;;;;;12.33;7.70;;;;;;;7.05;86.09;100962.98;1778261;79;21053;-57
2021/11/21 06:19:03;;;;;;;13.45;7.83;;;;;;;7.10;85.88;100958.44;1792065;79;21021;-65
2021/11/21 06:21:30;;;;;;;13.10;7.58;;;;;;;7.16;85.71;100954.33;1785951;79;21602;-57
2021/11/21 06:23:57;;;;;;;15.75;8.00;;;;;;;7.24;85.54;100955.52;1789565;79;21032;-57
2021/11/21 06:26:24;;;;;;;14.47;7.95;;;;;;;7.32;85.38;100958.06;1791061;79;21804;-65
2021/11/21 06:28:53;;;;;;;13.98;7.83;;;;;;;7.41;85.07;100957.91;1779721;79;21055;-64
2021/11/21 06:31:20;;;;;;;14.53;7.78;;;;;;;7.48;84.75;100953.78;1789873;79;21346;-65
2021/11/21 06:33:47;;;;;;;11.22;7.10;;;;;;;7.54;84.44;100951.89;1789041;79;21083;-65
2021/11/21 06:36:14;;;;;;;10.80;7.25;;;;;;;7.60;84.13;100946.42;1785730;79;21079;-64
2021/11/21 06:38:42;;;;;;;11.68;6.92;;;;;;;7.68;83.87;100948.95;1785935;79;21123;-57
2021/11/21 06:41:08;;;;;;;12.15;7.50;;;;;;;7.77;83.68;100945.66;1792218;79;21533;-57
2021/11/21 06:43:35;;;;;;;15.03;8.23;;;;;;;7.85;83.31;100948.59;1791541;78;21033;-57
2021/11/21 06:46:02;;;;;;;14.98;8.48;;;;;;;7.92;82.97;100942.68;1784298;79;21031;-58
2021/11/21 06:48:29;;;;;;;15.05;8.20;;;;;;;7.97;82.59;100946.13;1788458;78;21102;-58
2021/11/21 06:50:56;;;;;;;14.05;8.18;;;;;;;8.00;82.41;100944.72;1796791;78;21130;-65
2021/11/21 06:53:23;;;;;;;13.53;7.85;;;;;;;8.04;82.32;100934.87;1787395;79;21579;-56
2021/11/21 06:55:50;;;;;;;14.05;8.53;;;;;;;8.09;82.28;100932.11;1785854;79;21568;-65
2021/11/21 06:58:17;;;;;;;11.85;8.08;;;;;;;8.13;82.22;100935.13;1787092;78;21054;-58
2021/11/21 07:00:44;;;;;;;14.85;9.05;;;;;;;8.18;82.40;100937.23;1800524;79;20976;-57
2021/11/21 07:03:11;;;;;;;12.75;8.85;;;;;;;8.25;82.34;100940.17;1790328;78;22999;-64
2021/11/21 07:05:38;;;;;;;13.78;8.93;;;;;;;8.29;82.20;100933.88;1790730;79;21212;-57
2021/11/21 07:08:05;;;;;;;16.30;8.55;;;;;;;8.32;82.16;100934.25;1790237;79;21472;-57
2021/11/21 07:10:32;;;;;;;15.75;9.08;;;;;;;8.36;82.14;100936.41;1785246;79;21144;-56
2021/11/21 07:13:02;;;;;;;13.10;8.23;;;;;;;8.43;82.01;100938.02;1790464;79;20956;-57
2021/11/21 07:15:29;;;;;;;13.62;8.85;;;;;;;8.50;82.00;100932.97;1781613;79;21692;-57
2021/11/21 07:17:57;;;;;;;14.75;9.20;;;;;;;8.63;81.79;100939.38;1720184;82;21225;-65
2021/11/21 07:20:25;;;;;;;15.93;8.40;;;;;;;8.71;81.53;100946.30;1717095;82;21151;-58
2021/11/21 07:22:53;;;;;;;19.10;10.32;;;;;;;8.80;81.21;100946.53;1782060;79;21412;-67
2021/11/21 07:25:22;;;;;;;17.37;10.85;;;;;;;8.88;80.87;100945.87;1780918;79;21306;-58
2021/11/21 07:27:49;;;;;;;16.10;9.03;;;;;;;8.93;80.47;100947.11;1782780;79;21066;-65
2021/11/21 07:30:18;;;;;;;15.85;9.43;;;;;;;8.98;80.26;100942.98;1775875;79;21023;-65
2021/11/21 07:32:45;;;;;;;11.45;8.23;;;;;;;9.05;80.13;100949.93;1779166;79;21046;-58
2021/11/21 07:35:15;;;;;;;14.70;8.03;;;;;;;9.14;79.87;100949.68;1782044;79;21321;-66
2021/11/21 07:37:42;;;;;;;13.05;7.65;;;;;;;9.27;79.70;100948.03;1781256;79;21577;-65
2021/11/21 07:40:12;;;;;;;15.25;8.63;;;;;;;9.38;79.53;100943.73;1786318;79;21153;-57
2021/11/21 07:42:40;;;;;;;12.70;7.92;;;;;;;9.54;79.19;100938.83;1784532;79;21031;-57
2021/11/21 07:45:08;;;;;;;13.45;8.48;;;;;;;9.64;78.89;100945.70;1785619;78;21083;-58
2021/11/21 07:47:35;;;;;;;13.22;8.85;;;;;;;9.72;78.54;100946.36;1782221;79;21415;-64
2021/11/21 07:50:04;;;;;;;12.90;8.50;;;;;;;9.79;78.42;100952.42;1783513;78;21042;-66
2021/11/21 07:52:31;;;;;;;15.48;8.68;;;;;;;9.88;78.26;100953.96;1780812;79;21503;-59
2021/11/21 07:54:58;;;;;;;15.35;9.38;;;;;;;9.96;78.00;100947.91;1773270;79;21061;-66
2021/11/21 07:57:25;;;;;;;17.27;10.53;;;;;;;10.02;77.87;100937.00;1775554;79;21043;-57
2021/11/21 07:59:52;;;;;;;19.52;10.98;;;;;;;10.14;77.82;100945.61;1774877;79;21844;-65
2021/11/21 08:02:18;;;;;;;13.85;9.85;;;;;;;10.26;77.67;100942.55;1786490;79;21058;-66
2021/11/21 08:04:46;;;;;;;11.53;8.05;;;;;;;10.39;77.44;100942.17;1784267;79;21593;-65
2021/11/21 08:07:12;;;;;;;13.95;8.68;;;;;;;10.56;77.04;100933.18;1783233;79;21103;-66
2021/11/21 08:09:39;;;;;;;14.45;8.48;;;;;;;10.71;76.48;100929.12;1781494;78;21088;-58
2021/11/21 08:12:08;;;;;;;14.35;8.53;;;;;;;10.83;75.86;100933.20;1779446;79;21460;-59
2021/11/21 08:14:35;;;;;;;14.00;8.10;;;;;;;10.94;75.36;100940.00;1785449;79;20991;-56
2021/11/21 08:17:02;;;;;;;14.90;9.30;;;;;;;11.03;74.71;100937.02;1776111;79;21828;-57
2021/11/21 08:19:30;;;;;;;12.23;8.53;;;;;;;11.10;74.34;100935.88;1766451;79;21041;-58
2021/11/21 08:21:56;;;;;;;10.38;7.53;;;;;;;11.21;73.42;100938.67;1767574;79;21053;-66
2021/11/21 08:24:23;;;;;;;10.58;7.58;;;;;;;11.28;72.69;100938.86;1764802;79;21073;-67
2021/11/21 08:26:50;;;;;;;10.82;7.58;;;;;;;11.37;72.16;100933.15;1768750;79;21111;-58
2021/11/21 08:29:17;;;;;;;12.68;7.10;;;;;;;11.44;71.61;100932.02;1771330;79;21678;-67
2021/11/21 08:31:44;;;;;;;10.40;6.37;;;;;;;11.54;71.28;100919.59;1772228;79;21073;-65
2021/11/21 08:34:12;;;;;;;13.28;7.08;;;;;;;11.65;70.76;100921.44;1775843;79;21019;-65
2021/11/21 08:36:39;;;;;;;12.35;6.97;;;;;;;11.74;70.48;100922.42;1769767;80;21034;-65
2021/11/21 08:39:06;;;;;;;14.70;7.50;;;;;;;11.85;70.19;100919.82;1773619;80;21096;-64
2021/11/21 08:41:33;;;;;;;10.93;7.03;;;;;;;11.95;70.02;100922.55;1774830;79;21117;-65
2021/11/21 08:44:00;;;;;;;11.40;6.62;;;;;;;12.07;69.67;100913.66;1771677;79;21052;-58
2021/11/21 08:46:27;;;;;;;10.18;6.40;;;;;;;12.16;69.01;100917.32;1766735;80;21074;-57
2021/11/21 08:48:54;;;;;;;10.48;6.60;;;;;;;12.20;68.58;100912.23;1772237;79;21120;-58
2021/11/21 08:51:21;;;;;;;9.18;6.15;;;;;;;12.27;68.07;100907.04;1773591;79;21409;-66
2021/11/21 08:53:48;;;;;;;11.33;6.55;;;;;;;12.34;67.65;100905.44;1771591;79;21521;-65
2021/11/21 08:56:20;;;;;;;10.95;6.87;;;;;;;12.41;66.85;100909.17;1766909;80;21045;-57
2021/11/21 08:58:44;;;;;;;9.58;6.62;;;;;;;12.45;66.41;100904.52;1769627;79;21709;-56
2021/11/21 09:01:11;;;;;;;9.45;6.80;;;;;;;12.49;65.97;100901.25;1772948;79;21096;-65
2021/11/21 09:03:39;;;;;;;12.63;6.72;;;;;;;12.51;65.43;100898.92;1776797;79;21065;-65
2021/11/21 09:06:06;;;;;;;10.50;6.92;;;;;;;12.53;65.34;100898.84;1772710;79;21038;-66
2021/11/21 09:08:34;;;;;;;8.93;6.22;;;;;;;12.58;64.99;100903.09;1773028;79;21054;-58
2021/11/21 09:11:01;;;;;;;9.30;6.45;;;;;;;12.61;64.50;100889.52;1771941;79;21075;-58
2021/11/21 09:13:28;;;;;;;11.78;6.70;;;;;;;12.61;64.39;100890.86;1763872;79;21544;-58
2021/11/21 09:15:55;;;;;;;9.83;6.62;;;;;;;12.66;64.27;100891.14;1773074;79;21066;-57
2021/11/21 09:20:53;;;;;;;10.58;6.72;;;;;;;12.72;63.88;100877.45;1790271;77;21550;-57
2021/11/21 09:23:20;;;;;;;13.00;6.58;;;;;;;12.78;63.98;100867.77;1779958;79;20995;-57
2021/11/21 09:25:48;;;;;;;12.30;6.67;;;;;;;12.88;63.73;100873.15;1778566;79;21067;-56
2021/11/21 09:28:15;;;;;;;10.23;5.87;;;;;;;12.94;63.50;100872.02;1784687;79;21046;-57
2021/11/21 09:30:42;;;;;;;7.90;5.28;;;;;;;12.96;63.39;100868.79;1785402;79;21827;-58
2021/11/21 09:33:10;;;;;;;7.00;4.42;;;;;;;13.01;62.87;100865.91;1781559;79;20991;-64
2021/11/21 09:35:38;;;;;;;8.18;5.12;;;;;;;13.03;62.65;100859.98;1781713;79;21631;-65
2021/11/21 09:38:05;;;;;;;9.10;4.83;;;;;;;13.07;62.24;100864.28;1781205;79;21085;-66
2021/11/21 09:40:32;;;;;;;12.23;5.08;;;;;;;13.07;62.13;100856.21;1782192;79;21019;-65
2021/11/21 09:43:01;;;;;;;8.88;5.25;;;;;;;13.10;62.05;100851.17;1779828;79;21497;-65
2021/11/21 09:45:27;;;;;;;13.98;5.75;;;;;;;13.14;61.87;100845.56;1782264;79;21038;-65
2021/11/21 09:47:56;;;;;;;14.43;5.50;;;;;;;13.16;61.59;100843.70;1782584;78;21094;-65
2021/11/21 09:50:23;;;;;;;10.43;5.67;;;;;;;13.17;61.45;100834.69;1778361;79;21385;-57
2021/11/21 09:52:51;;;;;;;11.30;5.53;;;;;;;13.20;61.24;100834.14;1778358;79;21662;-57
2021/11/21 09:55:18;;;;;;;11.20;5.33;;;;;;;13.24;60.99;100835.75;1782065;79;21112;-65
2021/11/21 09:57:46;;;;;;;12.63;5.03;;;;;;;13.25;60.84;100824.04;1782144;79;21022;-66
2021/11/21 10:00:18;;;;;;;12.05;5.50;;;;;;;13.27;61.00;100832.92;1777254;79;21314;-66
2021/11/21 10:02:58;;;;;;;7.25;5.12;;;;;;;13.32;60.94;100832.23;1783323;79;21598;-65
2021/11/21 10:05:30;;;;;;;8.00;5.22;;;;;;;13.36;60.70;100824.41;1773461;78;21045;-57
2021/11/21 10:08:13;;;;;;;7.75;4.53;;;;;;;13.42;60.67;100828.19;1779874;79;21128;-59
2021/11/21 10:10:53;;;;;;;9.35;5.17;;;;;;;13.47;60.39;100825.30;1784342;79;22334;-60
2021/11/21 10:13:36;;;;;;;9.03;5.10;;;;;;;13.50;60.18;100822.49;1782819;78;21444;-62
2021/11/21 10:16:37;;;;;;;9.80;5.10;;;;;;;13.50;59.95;100819.80;1783523;79;21539;-58
2021/11/21 10:19:08;;;;;;;9.88;4.95;;;;;;;13.50;59.77;100810.83;1781698;79;21101;-58
2021/11/21 10:21:50;;;;;;;12.75;5.83;;;;;;;13.49;59.66;100803.69;1778431;79;21063;-66
2021/11/21 10:24:30;;;;;;;10.28;5.00;;;;;;;13.53;59.30;100803.48;1773817;79;21480;-57
2021/11/21 10:27:16;;;;;;;7.95;4.80;;;;;;;13.56;59.22;100794.38;1776363;79;21554;-58
2021/11/21 10:29:49;;;;;;;10.13;5.35;;;;;;;13.61;59.20;100793.70;1774553;79;21045;-57
2021/11/21 10:32:21;;;;;;;9.90;5.15;;;;;;;13.72;59.15;100785.12;1789231;79;21020;-66
2021/11/21 10:34:57;;;;;;;9.23;5.47;;;;;;;13.78;58.90;100787.97;1782778;79;21125;-59
2021/11/21 10:37:36;;;;;;;8.93;5.33;;;;;;;13.83;58.82;100775.17;1784000;79;21062;-67
2021/11/21 10:40:15;;;;;;;11.00;5.85;;;;;;;13.88;58.83;100777.16;1778274;79;21501;-58
2021/11/21 10:42:44;;;;;;;10.15;5.12;;;;;;;13.96;58.73;100773.61;1781345;78;20928;-64
2021/11/21 10:45:13;;;;;;;9.53;5.83;;;;;;;14.00;58.25;100771.16;1778167;79;20995;-65
2021/11/21 10:47:51;;;;;;;10.32;5.08;;;;;;;14.00;58.15;100768.45;1774625;79;21529;-57
2021/11/21 10:50:37;;;;;;;9.73;4.90;;;;;;;14.01;57.94;100763.47;1778023;79;22040;-64
2021/11/21 10:53:09;;;;;;;10.48;4.87;;;;;;;14.04;57.82;100759.30;1770390;78;21066;-66
2021/11/21 10:55:37;;;;;;;10.53;5.47;;;;;;;14.04;57.59;100751.20;1764959;79;21689;-65
2021/11/21 10:58:15;;;;;;;11.73;4.50;;;;;;;14.07;57.68;100745.27;1777870;78;21503;-65
2021/11/21 11:00:43;;;;;;;6.95;4.20;;;;;;;14.13;57.52;100734.16;1778941;78;21065;-57
2021/11/21 11:03:21;;;;;;;8.55;4.42;;;;;;;14.17;57.01;100742.48;1779345;79;20947;-57
2021/11/21 11:05:49;;;;;;;7.42;4.40;;;;;;;14.16;56.80;100731.31;1786181;79;21075;-60
2021/11/21 11:08:27;;;;;;;6.00;3.92;;;;;;;14.18;56.61;100730.75;1779142;79;21059;-57
2021/11/21 11:10:53;;;;;;;8.35;3.90;;;;;;;14.17;56.59;100721.81;1779916;78;20951;-57
2021/11/21 11:13:23;;;;;;;8.20;4.25;;;;;;;14.20;56.42;100726.16;1782949;79;21529;-64
2021/11/21 11:15:50;;;;;;;6.75;4.45;;;;;;;14.21;56.30;100718.95;1778229;79;21075;-64
2021/11/21 11:18:17;;;;;;;7.37;4.10;;;;;;;14.19;56.25;100720.36;1759661;79;21064;-57
2021/11/21 11:20:47;;;;;;;6.80;3.72;;;;;;;14.18;55.92;100714.58;1775036;79;21023;-65
2021/11/21 11:23:16;;;;;;;7.35;4.28;;;;;;;14.14;55.83;100711.64;1768107;79;21053;-65
2021/11/21 11:25:44;;;;;;;9.28;5.50;;;;;;;14.16;56.07;100715.13;1772221;79;22157;-57
2021/11/21 11:28:37;;;;;;;9.28;5.83;;;;;;;14.20;56.79;100717.20;1774235;80;20959;-61
2021/11/21 11:31:24;;;;;;;10.32;6.33;;;;;;;14.21;57.79;100709.52;1777027;79;21009;-65
2021/11/21 11:33:52;;;;;;;12.15;5.97;;;;;;;14.21;58.99;100703.62;1777400;79;20958;-64